Hovedside
METAR-TAF:

METAR-TAF

Lufthavner :

Medford, Oregon, USA

breddegrad: 42-22-52N, lengdegrad: 122-52-20W, høyde over havet: 405 m

Gjeldene værobservasjon

Denne rapporten ble laget for 31 minutter siden, klokken 18:53 UTC
Flau vind
Temperatur 7°C
Luftfuktighet 53%
Trykk 1034 hPa
Sikt: 16.1 km
Skyfri himmel

METAR: KMFR 251853Z 00000KT 10SM CLR 07/M02 A3053 RMK AO2 SLP345 T00671017

Tid: 11:24 (19:24 UTC)

Varsel

Denne rapporten ble laget for 1 time og 46 minutter siden, klokken 17:38 UTC
Varsel gyldig fra 25. klokken 18 UTC til 26. klokken 18 UTC
Vind kt fra Nord
Sikt: 10 km
Skyfri himmel

TAF: KMFR 251738Z 2518/2618 00000KT P6SM SKC

Værobservasjoner og værvarsel for over 4000 flyplasser (METAR- og TAF-rapporter).

Tilgjengelige stasjoner er representert av de røde og gule prikkene på kartet.

Hold musepekeren over prikken for å se navnet på stasjonen.

Klikk så for å se værobservasjoner og -varsler.

For å forandre kartet kan du klikke på den grønne knappen med svart kryss for å zoome inn, på den grønne knappen med strek for å zoome ut, eller på de grønne pilene for å se tilstøtende kart.


METAR-TAF: